createdAt,value
2018-06-19T00:00:44.209Z,8.83
2018-06-19T00:03:13.173Z,11.77
2018-06-19T00:05:42.256Z,9.77
2018-06-19T00:08:11.360Z,9.37
2018-06-19T00:10:40.372Z,10.17
2018-06-19T00:13:09.355Z,10.30
2018-06-19T00:15:38.316Z,10.60
2018-06-19T00:18:11.917Z,10.20
2018-06-19T00:20:40.938Z,10.07
2018-06-19T00:23:09.997Z,10.27
2018-06-19T00:25:38.984Z,11.10
2018-06-19T00:28:07.951Z,11.37
2018-06-19T00:30:36.908Z,11.00
2018-06-19T00:33:05.885Z,10.47
2018-06-19T00:35:34.901Z,11.90
2018-06-19T00:38:03.861Z,12.93
2018-06-19T00:40:32.829Z,12.57
2018-06-19T00:43:01.800Z,11.40
2018-06-19T00:45:30.840Z,12.63
2018-06-19T00:47:59.902Z,11.87
2018-06-19T00:50:28.970Z,12.23
2018-06-19T00:52:58.047Z,11.27
2018-06-19T00:55:27.111Z,12.60
2018-06-19T00:57:56.105Z,13.93
2018-06-19T01:00:25.073Z,17.77
2018-06-19T01:02:54.041Z,14.10
2018-06-19T01:05:23.058Z,14.10
2018-06-19T01:07:52.328Z,13.00
2018-06-19T01:10:21.329Z,11.47
2018-06-19T01:12:50.378Z,12.10
2018-06-19T01:15:19.381Z,12.87
2018-06-19T01:17:48.368Z,14.40
2018-06-19T01:20:17.500Z,18.73
2018-06-19T01:22:46.503Z,16.90
2018-06-19T01:25:16.331Z,17.37
2018-06-19T01:27:45.353Z,19.30
2018-06-19T01:30:14.308Z,21.90
2018-06-19T01:32:43.333Z,27.27
2018-06-19T01:35:12.320Z,32.07
2018-06-19T01:37:41.302Z,34.60
2018-06-19T01:40:10.264Z,32.37
2018-06-19T01:42:39.257Z,36.13
2018-06-19T01:45:08.221Z,31.80
2018-06-19T01:47:37.261Z,40.13
2018-06-19T01:50:06.233Z,41.00
2018-06-19T01:52:35.224Z,39.70
2018-06-19T01:55:04.250Z,24.40
2018-06-19T01:57:33.235Z,22.20
2018-06-19T02:00:02.314Z,15.10
2018-06-19T02:02:31.406Z,12.83
2018-06-19T02:05:00.468Z,11.57
2018-06-19T02:07:29.499Z,10.20
2018-06-19T02:09:58.516Z,8.93
2018-06-19T02:12:27.525Z,8.80
2018-06-19T02:14:56.598Z,7.10
2018-06-19T02:17:25.669Z,6.80
2018-06-19T02:19:54.648Z,8.87
2018-06-19T02:22:23.636Z,15.37
2018-06-19T02:24:52.620Z,18.27
2018-06-19T02:27:21.584Z,20.10
2018-06-19T02:29:50.606Z,17.17
2018-06-19T02:32:19.629Z,16.90
2018-06-19T02:34:48.673Z,15.27
2018-06-19T02:37:17.637Z,16.10
2018-06-19T02:39:46.630Z,14.20
2018-06-19T02:42:15.678Z,14.50
2018-06-19T02:44:44.706Z,12.63
2018-06-19T02:47:13.732Z,12.40
2018-06-19T02:49:42.744Z,11.67
2018-06-19T02:52:11.945Z,11.97
2018-06-19T02:54:40.993Z,14.87
2018-06-19T02:57:10.009Z,14.10
2018-06-19T02:59:38.986Z,15.43
2018-06-19T03:02:07.993Z,14.80
2018-06-19T03:04:36.972Z,14.00
2018-06-19T03:07:05.978Z,13.43
2018-06-19T03:09:34.985Z,12.20
2018-06-19T03:12:04.024Z,12.33
2018-06-19T03:14:33.110Z,11.60
2018-06-19T03:17:02.153Z,12.37
2018-06-19T03:19:31.112Z,13.00
2018-06-19T03:22:00.253Z,13.60
2018-06-19T03:24:29.356Z,13.23
2018-06-19T03:26:58.340Z,12.33
2018-06-19T03:29:27.309Z,12.30
2018-06-19T03:31:56.346Z,11.40
2018-06-19T03:34:25.488Z,11.80
2018-06-19T03:36:54.532Z,11.30
2018-06-19T03:39:23.566Z,12.00
2018-06-19T03:41:52.532Z,11.03
2018-06-19T03:44:21.492Z,9.43
2018-06-19T03:46:50.459Z,10.17
2018-06-19T03:49:19.546Z,9.20
2018-06-19T03:51:48.565Z,8.00
2018-06-19T03:54:17.509Z,8.30
2018-06-19T03:56:46.596Z,7.67
2018-06-19T03:59:15.649Z,8.90
2018-06-19T04:01:44.689Z,7.57
2018-06-19T04:04:13.668Z,5.30
2018-06-19T04:06:42.762Z,6.63
2018-06-19T04:09:11.743Z,7.57
2018-06-19T04:11:40.712Z,6.20
2018-06-19T04:14:09.724Z,5.47
2018-06-19T04:16:38.781Z,6.87
2018-06-19T04:19:07.855Z,7.13
2018-06-19T04:21:36.831Z,7.17
2018-06-19T04:24:05.862Z,7.90
2018-06-19T04:26:35.881Z,7.10
2018-06-19T04:29:04.937Z,8.80
2018-06-19T04:31:33.977Z,8.47
2018-06-19T04:34:02.978Z,6.23
2018-06-19T04:36:31.945Z,6.00
2018-06-19T04:39:00.899Z,7.17
2018-06-19T04:41:29.917Z,6.67
2018-06-19T04:43:58.880Z,5.80
2018-06-19T04:46:27.854Z,5.23
2018-06-19T04:48:56.800Z,4.40
2018-06-19T04:51:25.774Z,3.80
2018-06-19T04:53:54.732Z,4.67
2018-06-19T04:56:23.826Z,3.63
2018-06-19T04:58:52.840Z,4.23
2018-06-19T05:01:21.861Z,4.53
2018-06-19T05:03:50.977Z,4.80
2018-06-19T05:06:20.017Z,4.50
2018-06-19T05:08:49.017Z,4.53
2018-06-19T05:11:18.110Z,3.40
2018-06-19T05:13:47.053Z,4.43
2018-06-19T05:16:16.119Z,4.30
2018-06-19T05:18:45.190Z,5.10
2018-06-19T05:21:14.216Z,4.60
2018-06-19T05:23:43.236Z,4.63
2018-06-19T05:26:12.297Z,5.13
2018-06-19T05:28:41.369Z,4.60
2018-06-19T05:31:10.324Z,4.50
2018-06-19T05:33:39.323Z,4.57
2018-06-19T05:36:08.293Z,4.40
2018-06-19T05:38:37.264Z,3.90
2018-06-19T05:41:06.237Z,5.70
2018-06-19T05:43:35.237Z,4.87
2018-06-19T05:46:04.364Z,4.83
2018-06-19T05:48:33.323Z,5.90
2018-06-19T05:51:02.340Z,5.50
2018-06-19T05:53:31.363Z,7.10
2018-06-19T05:56:00.444Z,7.70
2018-06-19T05:58:29.549Z,5.90
2018-06-19T06:00:58.607Z,6.47
2018-06-19T06:03:27.606Z,6.17
2018-06-19T06:05:56.713Z,5.50
2018-06-19T06:08:25.668Z,6.17
2018-06-19T06:10:54.689Z,5.40
2018-06-19T06:13:23.843Z,5.30
2018-06-19T06:15:52.868Z,5.60
2018-06-19T06:18:21.905Z,3.90
2018-06-19T06:20:50.921Z,4.30
2018-06-19T06:23:19.924Z,4.20
2018-06-19T06:25:48.893Z,4.23
2018-06-19T06:28:17.983Z,4.90
2018-06-19T06:30:47.017Z,3.93
2018-06-19T06:33:16.076Z,3.70
2018-06-19T06:35:45.145Z,3.87
2018-06-19T06:38:14.159Z,2.53
2018-06-19T06:40:43.156Z,3.07
2018-06-19T06:43:12.169Z,3.47
2018-06-19T06:45:41.218Z,3.23
2018-06-19T06:48:10.237Z,2.70
2018-06-19T06:50:39.293Z,4.30
2018-06-19T06:53:08.328Z,3.10
2018-06-19T06:55:37.301Z,3.30
2018-06-19T06:58:06.443Z,3.87
2018-06-19T07:00:35.500Z,3.50
2018-06-19T07:03:04.452Z,5.00
2018-06-19T07:05:33.397Z,3.27
2018-06-19T07:08:02.407Z,3.47
2018-06-19T07:10:31.364Z,4.30
2018-06-19T07:13:00.316Z,5.40
2018-06-19T07:15:29.281Z,4.00
2018-06-19T07:17:58.256Z,3.90
2018-06-19T07:20:27.200Z,4.40
2018-06-19T07:22:56.326Z,4.50
2018-06-19T07:25:25.366Z,5.30
2018-06-19T07:27:54.373Z,4.63
2018-06-19T07:30:23.368Z,4.57
2018-06-19T07:32:52.358Z,4.00
2018-06-19T07:35:21.457Z,4.13
2018-06-19T07:37:50.522Z,5.07
2018-06-19T07:40:19.491Z,4.73
2018-06-19T07:42:48.534Z,5.60
2018-06-19T07:45:17.562Z,5.50
2018-06-19T07:47:46.508Z,5.87
2018-06-19T07:50:15.610Z,5.80
2018-06-19T07:52:44.576Z,5.10
2018-06-19T07:55:13.540Z,5.80
2018-06-19T07:57:42.488Z,6.03
2018-06-19T08:00:11.505Z,5.27
2018-06-19T08:02:40.502Z,6.03
2018-06-19T08:05:09.481Z,5.90
2018-06-19T08:07:38.481Z,5.50
2018-06-19T08:10:07.516Z,6.00
2018-06-19T08:12:36.519Z,5.40
2018-06-19T08:15:05.613Z,5.80
2018-06-19T08:17:34.578Z,5.50
2018-06-19T08:20:03.658Z,5.70
2018-06-19T08:22:32.736Z,5.07
2018-06-19T08:25:01.780Z,5.80
2018-06-19T08:27:30.748Z,6.10
2018-06-19T08:29:59.765Z,4.97
2018-06-19T08:32:28.775Z,5.70
2018-06-19T08:34:57.781Z,5.10
2018-06-19T08:37:27.394Z,5.80
2018-06-19T08:39:56.650Z,5.40
2018-06-19T08:42:25.738Z,5.57
2018-06-19T08:44:54.704Z,5.80
2018-06-19T08:47:23.673Z,5.20
2018-06-19T08:49:52.631Z,5.10
2018-06-19T08:52:21.617Z,5.40
2018-06-19T08:54:50.568Z,4.97
2018-06-19T08:57:19.623Z,5.13
2018-06-19T08:59:48.641Z,5.67
2018-06-19T09:02:17.730Z,5.57
2018-06-19T09:04:46.773Z,5.50
2018-06-19T09:07:15.831Z,5.80
2018-06-19T09:09:44.867Z,4.70
2018-06-19T09:12:13.832Z,5.20
2018-06-19T09:14:42.849Z,4.63
2018-06-19T09:17:11.949Z,5.70
2018-06-19T09:19:41.015Z,7.17
2018-06-19T09:22:10.035Z,4.60
2018-06-19T09:24:39.057Z,5.30
2018-06-19T09:27:08.108Z,5.07
2018-06-19T09:29:37.110Z,5.07
2018-06-19T09:32:06.224Z,5.30
2018-06-19T09:34:35.256Z,4.50
2018-06-19T09:37:04.313Z,4.63
2018-06-19T09:39:33.288Z,4.67
2018-06-19T09:42:02.317Z,5.43
2018-06-19T09:44:31.349Z,5.00
2018-06-19T09:47:00.392Z,4.57
2018-06-19T09:49:29.465Z,4.63
2018-06-19T09:51:58.517Z,4.00
2018-06-19T09:54:27.568Z,3.90
2018-06-19T09:56:56.592Z,5.33
2018-06-19T09:59:25.564Z,4.10
2018-06-19T10:01:54.625Z,3.90
2018-06-19T10:04:23.585Z,4.00
2018-06-19T10:06:52.612Z,4.10
2018-06-19T10:09:21.641Z,4.30
2018-06-19T10:11:50.687Z,3.80
2018-06-19T10:14:19.684Z,3.50
2018-06-19T10:16:48.661Z,3.87
2018-06-19T10:19:17.685Z,4.10
2018-06-19T10:21:46.684Z,3.20
2018-06-19T10:24:15.701Z,3.00
2018-06-19T10:26:44.733Z,3.10
2018-06-19T10:29:13.737Z,2.97
2018-06-19T10:31:42.714Z,3.10
2018-06-19T10:34:11.668Z,3.47
2018-06-19T10:36:40.612Z,4.42
2018-06-19T10:39:10.908Z,3.60
2018-06-19T10:41:39.922Z,3.90
2018-06-19T10:44:08.933Z,3.40
2018-06-19T10:46:37.960Z,3.02
2018-06-19T10:49:07.140Z,4.40
2018-06-19T10:51:36.192Z,3.60
2018-06-19T10:54:05.188Z,4.20
2018-06-19T10:56:34.188Z,3.80
2018-06-19T10:59:03.183Z,3.37
2018-06-19T11:01:32.241Z,3.22
2018-06-19T11:04:01.213Z,3.30
2018-06-19T11:06:30.312Z,2.83
2018-06-19T11:08:59.275Z,3.07
2018-06-19T11:11:28.212Z,2.73
2018-06-19T11:13:57.328Z,2.90
2018-06-19T11:16:26.291Z,3.43
2018-06-19T11:18:55.251Z,3.10
2018-06-19T11:21:24.198Z,3.17
2018-06-19T11:23:53.307Z,3.13
2018-06-19T11:26:22.344Z,3.33
2018-06-19T11:28:51.324Z,3.13
2018-06-19T11:31:20.376Z,3.63
2018-06-19T11:33:49.406Z,3.30
2018-06-19T11:36:18.423Z,3.40
2018-06-19T11:38:47.523Z,3.60
2018-06-19T11:41:16.539Z,3.37
2018-06-19T11:43:45.480Z,3.40
2018-06-19T11:46:14.501Z,3.40
2018-06-19T11:48:43.452Z,2.40
2018-06-19T11:51:12.408Z,3.40
2018-06-19T11:53:41.405Z,2.95
2018-06-19T11:56:10.433Z,2.70
2018-06-19T11:58:39.428Z,2.55
2018-06-19T12:01:08.569Z,4.20
2018-06-19T12:03:37.528Z,4.22
2018-06-19T12:06:06.520Z,2.50
2018-06-19T12:08:35.551Z,2.80
2018-06-19T12:11:04.681Z,3.30
2018-06-19T12:13:33.698Z,3.00
2018-06-19T12:16:02.786Z,2.45
2018-06-19T12:18:31.732Z,3.08
2018-06-19T12:21:00.737Z,2.62
2018-06-19T12:23:29.810Z,2.65
2018-06-19T12:25:58.760Z,2.92
2018-06-19T12:28:28.159Z,2.60
2018-06-19T12:30:57.221Z,2.80
2018-06-19T12:33:26.171Z,2.58
2018-06-19T12:35:55.252Z,2.67
2018-06-19T12:38:24.260Z,2.33
2018-06-19T12:40:53.332Z,2.10
2018-06-19T12:43:22.377Z,2.12
2018-06-19T12:45:51.418Z,2.55
2018-06-19T12:48:20.465Z,2.40
2018-06-19T12:51:59.273Z,2.20
2018-06-19T12:55:09.729Z,2.58
2018-06-19T12:57:38.668Z,3.05
2018-06-19T13:00:07.593Z,2.80
2018-06-19T13:02:36.605Z,2.72
2018-06-19T13:05:16.660Z,2.08
2018-06-19T13:07:45.664Z,2.85
2018-06-19T13:10:14.948Z,3.37
2018-06-19T13:13:28.549Z,3.37
2018-06-19T13:15:57.838Z,3.40
2018-06-19T13:18:39.025Z,2.97
2018-06-19T13:21:07.984Z,3.20
2018-06-19T13:23:37.088Z,3.20
2018-06-19T13:26:05.980Z,2.80
2018-06-19T13:29:59.244Z,3.63
2018-06-19T13:32:28.473Z,3.67
2018-06-19T13:34:57.548Z,2.97
2018-06-19T13:37:26.554Z,2.90
2018-06-19T13:41:15.469Z,3.03
2018-06-19T13:43:55.680Z,3.40
2018-06-19T13:46:24.708Z,2.77
2018-06-19T13:48:53.724Z,2.70
2018-06-19T13:51:22.687Z,2.90
2018-06-19T13:53:51.624Z,3.12
2018-06-19T13:57:33.513Z,2.73
2018-06-19T14:00:03.935Z,3.73
2018-06-19T14:02:32.925Z,3.17
2018-06-19T14:05:02.384Z,4.03
2018-06-19T14:07:33.111Z,4.03
2018-06-19T14:10:20.090Z,4.17
2018-06-19T14:12:51.144Z,3.93
2018-06-19T14:15:21.258Z,3.90
2018-06-19T14:17:50.320Z,4.40
2018-06-19T14:20:19.318Z,3.37
2018-06-19T14:22:48.328Z,3.30
2018-06-19T14:25:17.923Z,2.93
2018-06-19T14:27:46.995Z,3.67
2018-06-19T14:30:15.979Z,3.80
2018-06-19T14:32:45.741Z,3.07
2018-06-19T14:35:14.875Z,3.57
2018-06-19T14:37:44.102Z,3.47
2018-06-19T14:40:13.511Z,3.87
2018-06-19T14:42:42.480Z,3.87
2018-06-19T14:45:11.899Z,3.50
2018-06-19T14:47:41.324Z,3.20
2018-06-19T14:50:10.337Z,4.00
2018-06-19T14:52:39.316Z,4.40
2018-06-19T14:55:09.284Z,4.00
2018-06-19T14:57:38.464Z,3.00
2018-06-19T15:00:08.605Z,3.57
2018-06-19T15:02:37.551Z,3.83
2018-06-19T15:05:06.787Z,3.53
2018-06-19T15:07:38.481Z,3.30
2018-06-19T15:10:08.901Z,3.57
2018-06-19T15:12:38.032Z,3.73
2018-06-19T15:15:07.052Z,4.10
2018-06-19T15:17:36.060Z,3.30
2018-06-19T15:20:05.248Z,3.20
2018-06-19T15:22:34.266Z,4.80
2018-06-19T15:25:03.335Z,3.50
2018-06-19T15:27:32.364Z,3.50
2018-06-19T15:30:01.383Z,3.70
2018-06-19T15:32:30.500Z,3.83
2018-06-19T15:34:59.649Z,3.50
2018-06-19T15:37:28.664Z,3.70
2018-06-19T15:39:57.619Z,4.13
2018-06-19T15:42:26.550Z,3.17
2018-06-19T15:44:55.546Z,4.20
2018-06-19T15:47:24.572Z,3.50
2018-06-19T15:49:53.644Z,3.43
2018-06-19T15:52:22.689Z,3.03
2018-06-19T15:54:51.639Z,5.40
2018-06-19T15:57:20.660Z,4.07
2018-06-19T15:59:49.611Z,4.70
2018-06-19T16:02:18.659Z,3.70
2018-06-19T16:04:47.604Z,3.57
2018-06-19T16:07:16.596Z,4.17
2018-06-19T16:09:45.661Z,3.37
2018-06-19T16:12:14.597Z,4.30
2018-06-19T16:14:43.558Z,3.93
2018-06-19T16:17:12.671Z,3.90
2018-06-19T16:19:41.700Z,3.40
2018-06-19T16:22:10.675Z,3.13
2018-06-19T16:24:39.704Z,3.53
2018-06-19T16:27:08.661Z,3.83
2018-06-19T16:29:37.666Z,2.90
2018-06-19T16:32:06.713Z,4.17
2018-06-19T16:34:35.819Z,2.83
2018-06-19T16:37:04.784Z,3.50
2018-06-19T16:39:33.852Z,3.10
2018-06-19T16:42:02.943Z,3.50
2018-06-19T16:44:31.920Z,3.77
2018-06-19T16:47:00.879Z,2.93
2018-06-19T16:49:29.882Z,3.63
2018-06-19T16:51:58.977Z,3.83
2018-06-19T16:54:28.029Z,3.77
2018-06-19T16:56:56.984Z,3.27
2018-06-19T16:59:26.013Z,3.47
2018-06-19T17:01:55.112Z,3.97
2018-06-19T17:04:24.273Z,3.10
2018-06-19T17:06:53.276Z,3.80
2018-06-19T17:09:22.269Z,3.93
2018-06-19T17:11:51.331Z,3.73
2018-06-19T17:14:20.272Z,3.43
2018-06-19T17:16:49.325Z,3.60
2018-06-19T17:19:19.077Z,3.53
2018-06-19T17:21:48.032Z,4.70
2018-06-19T17:24:17.105Z,5.40
2018-06-19T17:26:46.672Z,4.67
2018-06-19T17:29:15.727Z,5.27
2018-06-19T17:31:44.785Z,4.67
2018-06-19T17:34:13.781Z,5.20
2018-06-19T17:36:42.909Z,5.57
2018-06-19T17:39:12.461Z,4.93
2018-06-19T17:41:41.456Z,5.70
2018-06-19T17:44:10.411Z,5.90
2018-06-19T17:46:39.368Z,6.47
2018-06-19T17:49:08.388Z,7.10
2018-06-19T17:51:37.392Z,6.37
2018-06-19T17:54:06.521Z,5.50
2018-06-19T17:56:35.589Z,6.40
2018-06-19T17:59:04.674Z,5.63
2018-06-19T18:01:33.757Z,5.63
2018-06-19T18:04:02.796Z,6.37
2018-06-19T18:06:31.812Z,5.77
2018-06-19T18:09:00.882Z,6.47
2018-06-19T18:11:29.912Z,6.20
2018-06-19T18:13:58.891Z,4.77
2018-06-19T18:16:27.840Z,5.77
2018-06-19T18:18:56.918Z,6.23
2018-06-19T18:21:26.011Z,5.40
2018-06-19T18:23:55.151Z,6.57
2018-06-19T18:26:24.192Z,5.33
2018-06-19T18:28:53.252Z,6.87
2018-06-19T18:31:22.296Z,5.50
2018-06-19T18:33:51.341Z,5.50
2018-06-19T18:36:20.425Z,6.63
2018-06-19T18:38:49.411Z,5.63
2018-06-19T18:41:18.524Z,4.60
2018-06-19T18:43:47.515Z,4.93
2018-06-19T18:46:16.540Z,4.33
2018-06-19T18:48:45.571Z,4.83
2018-06-19T18:51:14.627Z,4.70
2018-06-19T18:53:43.768Z,4.97
2018-06-19T18:56:12.828Z,12.50
2018-06-19T18:58:41.912Z,6.00
2018-06-19T19:01:11.002Z,5.70
2018-06-19T19:03:40.044Z,4.40
2018-06-19T19:06:09.041Z,5.30
2018-06-19T19:08:38.083Z,4.47
2018-06-19T19:11:07.098Z,4.50
2018-06-19T19:13:36.125Z,3.80
2018-06-19T19:16:10.056Z,3.97
2018-06-19T19:18:43.959Z,4.57
2018-06-19T19:21:13.009Z,5.37
2018-06-19T19:23:42.172Z,4.03
2018-06-19T19:26:11.892Z,4.90
2018-06-19T19:28:46.009Z,4.00
2018-06-19T19:31:14.996Z,5.03
2018-06-19T19:33:44.005Z,5.20
2018-06-19T19:36:18.119Z,7.70
2018-06-19T19:38:52.170Z,5.27
2018-06-19T19:41:21.296Z,5.47
2018-06-19T19:43:50.294Z,4.40
2018-06-19T19:46:24.220Z,3.80
2018-06-19T19:48:57.260Z,4.30
2018-06-19T19:51:27.402Z,4.10
2018-06-19T19:53:56.433Z,4.67
2018-06-19T19:56:30.524Z,4.23
2018-06-19T19:58:59.522Z,3.80
2018-06-19T20:01:28.532Z,3.80
2018-06-19T20:03:57.512Z,4.90
2018-06-19T20:06:26.527Z,3.93
2018-06-19T20:08:55.603Z,4.53
2018-06-19T20:11:24.649Z,4.80
2018-06-19T20:13:53.636Z,4.30
2018-06-19T20:16:22.649Z,4.70
2018-06-19T20:18:51.599Z,5.40
2018-06-19T20:21:20.564Z,5.53
2018-06-19T20:23:49.822Z,4.60
2018-06-19T20:26:18.764Z,4.17
2018-06-19T20:28:47.702Z,4.87
2018-06-19T20:31:16.720Z,4.60
2018-06-19T20:33:45.659Z,5.17
2018-06-19T20:36:14.609Z,4.70
2018-06-19T20:38:43.608Z,4.17
2018-06-19T20:41:12.563Z,4.50
2018-06-19T20:43:41.560Z,4.77
2018-06-19T20:46:10.630Z,4.30
2018-06-19T20:48:39.685Z,4.07
2018-06-19T20:51:08.660Z,4.50
2018-06-19T20:53:37.624Z,5.33
2018-06-19T20:56:06.625Z,5.00
2018-06-19T20:58:35.602Z,4.00
2018-06-19T21:01:04.532Z,4.63
2018-06-19T21:03:33.488Z,4.73
2018-06-19T21:06:02.423Z,4.30
2018-06-19T21:08:36.432Z,4.93
2018-06-19T21:11:05.548Z,5.10
2018-06-19T21:13:34.511Z,4.67
2018-06-19T21:16:03.641Z,4.60
2018-06-19T21:18:32.657Z,4.53
2018-06-19T21:21:01.637Z,5.63
2018-06-19T21:23:30.592Z,4.50
2018-06-19T21:25:59.670Z,4.80
2018-06-19T21:28:28.677Z,5.03
2018-06-19T21:30:57.685Z,5.50
2018-06-19T21:33:26.686Z,5.20
2018-06-19T21:35:55.676Z,5.30
2018-06-19T21:38:24.640Z,5.53
2018-06-19T21:40:53.693Z,4.63
2018-06-19T21:43:22.649Z,4.83
2018-06-19T21:45:51.635Z,5.13
2018-06-19T21:48:20.595Z,5.37
2018-06-19T21:50:49.542Z,5.70
2018-06-19T21:53:18.608Z,5.00
2018-06-19T21:55:47.600Z,5.13
2018-06-19T21:58:16.560Z,5.40
2018-06-19T22:00:45.665Z,4.63
2018-06-19T22:03:14.644Z,5.70
2018-06-19T22:05:43.704Z,4.50
2018-06-19T22:08:12.651Z,4.77
2018-06-19T22:10:41.586Z,5.80
2018-06-19T22:13:10.525Z,6.23
2018-06-19T22:15:39.497Z,5.60
2018-06-19T22:18:08.447Z,6.13
2018-06-19T22:20:37.425Z,5.63
2018-06-19T22:23:07.262Z,6.20
2018-06-19T22:25:36.282Z,5.70
2018-06-19T22:28:05.296Z,5.97
2018-06-19T22:30:34.317Z,6.23
2018-06-19T22:33:03.393Z,6.33
2018-06-19T22:35:32.373Z,4.77
2018-06-19T22:38:01.312Z,5.93
2018-06-19T22:40:30.272Z,5.93
2018-06-19T22:42:59.215Z,6.33
2018-06-19T22:45:28.276Z,6.23
2018-06-19T22:47:57.253Z,6.37
2018-06-19T22:50:26.210Z,6.10
2018-06-19T22:52:55.209Z,5.87
2018-06-19T22:55:24.272Z,5.67
2018-06-19T22:57:53.260Z,5.53
2018-06-19T23:00:23.780Z,5.70
2018-06-19T23:02:54.804Z,5.50
2018-06-19T23:05:23.805Z,5.93
2018-06-19T23:07:52.752Z,6.30
2018-06-19T23:10:21.753Z,6.60
2018-06-19T23:12:50.688Z,6.20
2018-06-19T23:15:19.719Z,5.97
2018-06-19T23:17:48.869Z,6.03
2018-06-19T23:20:17.825Z,6.43
2018-06-19T23:22:49.003Z,5.80
2018-06-19T23:25:18.328Z,6.70
2018-06-19T23:27:47.279Z,6.40
2018-06-19T23:30:17.137Z,5.93
2018-06-19T23:32:46.224Z,6.03
2018-06-19T23:35:15.272Z,6.10
2018-06-19T23:37:44.236Z,6.80
2018-06-19T23:40:13.252Z,7.17
2018-06-19T23:42:42.245Z,7.47
2018-06-19T23:45:11.265Z,7.50
2018-06-19T23:47:40.254Z,6.53
2018-06-19T23:50:09.333Z,6.67
2018-06-19T23:52:38.384Z,7.10
2018-06-19T23:55:07.356Z,6.13
2018-06-19T23:57:36.300Z,7.00
